Time,TemperatureF,DewpointF,PressureIn,WindDirection,WindDirectionDegrees,WindSpeedMPH,WindSpeedGustMPH,Humidity,HourlyPrecipIn,Conditions,Clouds,dailyrainin,SolarRadiationWatts/m^2,SoftwareType,DateUTC
2013-01-01 00:02:00,-11.0,-17.0,-100.00,SSW,196,0.0,1.0,72,0.00,,,0.00,0.000000,,2013-01-01 06:02:00,
2013-01-01 00:12:00,-11.0,-17.0,-100.00,SSW,196,0.0,1.0,72,0.00,,,0.00,0.000000,,2013-01-01 06:12:00,
2013-01-01 00:33:00,-13.0,-20.0,-100.00,WSW,244,0.0,2.0,71,0.00,,,0.00,0.000000,,2013-01-01 06:33:00,
2013-01-01 00:43:00,-13.0,-20.0,-100.00,WSW,244,0.0,2.0,71,0.00,,,0.00,0.000000,,2013-01-01 06:43:00,
2013-01-01 00:52:00,-13.0,-20.0,-100.00,WSW,244,0.0,2.0,71,0.00,,,0.00,0.000000,,2013-01-01 06:52:00,
2013-01-01 01:02:00,-13.0,-20.0,-100.00,WSW,244,0.0,2.0,71,0.00,,,0.00,0.000000,,2013-01-01 07:02:00,
2013-01-01 01:12:00,-13.0,-20.0,-100.00,WSW,244,0.0,2.0,71,0.00,,,0.00,0.000000,,2013-01-01 07:12:00,
2013-01-01 01:32:00,-14.0,-21.0,-100.00,West,272,0.0,0.0,70,0.00,,,0.00,0.000000,,2013-01-01 07:32:00,
2013-01-01 01:42:00,-14.0,-21.0,-100.00,West,272,0.0,0.0,70,0.00,,,0.00,0.000000,,2013-01-01 07:42:00,
2013-01-01 01:53:00,-14.0,-21.0,-100.00,West,272,0.0,0.0,70,0.00,,,0.00,0.000000,,2013-01-01 07:53:00,
2013-01-01 02:02:00,-14.0,-21.0,-100.00,West,272,0.0,0.0,70,0.00,,,0.00,0.000000,,2013-01-01 08:02:00,
2013-01-01 02:12:00,-14.0,-21.0,-100.00,West,272,0.0,0.0,70,0.00,,,0.00,0.000000,,2013-01-01 08:12:00,
2013-01-01 02:42:00,-14.0,-21.0,-100.00,North,10,0.0,1.0,69,0.00,,,0.00,0.000000,,2013-01-01 08:42:00,
2013-01-01 02:53:00,-14.0,-21.0,-100.00,North,10,0.0,1.0,69,0.00,,,0.00,0.000000,,2013-01-01 08:53:00,
2013-01-01 03:02:00,-14.0,-21.0,-100.00,North,10,0.0,1.0,69,0.00,,,0.00,0.000000,,2013-01-01 09:02:00,
2013-01-01 03:12:00,-14.0,-21.0,-100.00,North,10,0.0,1.0,69,0.00,,,0.00,0.000000,,2013-01-01 09:12:00,
2013-01-01 03:32:00,-15.0,-22.0,-100.00,NW,315,0.0,1.0,69,0.00,,,0.00,0.000000,,2013-01-01 09:32:00,
2013-01-01 03:42:00,-15.0,-22.0,-100.00,NW,315,0.0,1.0,69,0.00,,,0.00,0.000000,,2013-01-01 09:42:00,
2013-01-01 03:52:00,-15.0,-22.0,-100.00,NW,315,0.0,1.0,69,0.00,,,0.00,0.000000,,2013-01-01 09:52:00,
2013-01-01 04:02:00,-15.0,-22.0,-100.00,NW,315,0.0,1.0,69,0.00,,,0.00,0.000000,,2013-01-01 10:02:00,
2013-01-01 04:12:00,-15.0,-22.0,-100.00,NW,315,0.0,1.0,69,0.00,,,0.00,0.000000,,2013-01-01 10:12:00,
2013-01-01 04:33:00,-16.0,-23.0,-100.00,North,352,0.0,1.0,68,0.00,,,0.00,0.000000,,2013-01-01 10:33:00,
2013-01-01 04:43:00,-16.0,-23.0,-100.00,North,352,0.0,1.0,68,0.00,,,0.00,0.000000,,2013-01-01 10:43:00,
2013-01-01 04:53:00,-16.0,-23.0,-100.00,North,352,0.0,1.0,68,0.00,,,0.00,0.000000,,2013-01-01 10:53:00,
2013-01-01 05:02:00,-16.0,-23.0,-100.00,North,352,0.0,1.0,68,0.00,,,0.00,0.000000,,2013-01-01 11:02:00,
2013-01-01 05:12:00,-16.0,-23.0,-100.00,North,352,0.0,1.0,68,0.00,,,0.00,0.000000,,2013-01-01 11:12:00,
2013-01-01 05:33:00,-17.0,-24.0,-100.00,SSW,205,0.0,0.0,68,0.00,,,-99.99,0.000000,,2013-01-01 11:33:00,
2013-01-01 05:43:00,-17.0,-24.0,-100.00,SSW,205,0.0,0.0,68,0.00,,,-99.99,0.000000,,2013-01-01 11:43:00,
2013-01-01 05:53:00,-17.0,-24.0,-100.00,SSW,205,0.0,0.0,68,0.00,,,-99.99,0.000000,,2013-01-01 11:53:00,
2013-01-01 06:02:00,-17.0,-24.0,-100.00,SSW,205,0.0,0.0,68,0.00,,,-99.99,0.000000,,2013-01-01 12:02:00,
2013-01-01 06:12:00,-17.0,-24.0,-100.00,SSW,205,0.0,0.0,68,0.00,,,-99.99,0.000000,,2013-01-01 12:12:00,
2013-01-01 06:43:00,-17.0,-25.0,-100.00,North,10,0.0,0.0,67,0.00,,,0.00,0.000000,,2013-01-01 12:43:00,
2013-01-01 06:53:00,-17.0,-25.0,-100.00,North,10,0.0,0.0,67,0.00,,,0.00,0.000000,,2013-01-01 12:53:00,
2013-01-01 07:02:00,-17.0,-25.0,-100.00,North,10,0.0,0.0,67,0.00,,,0.00,0.000000,,2013-01-01 13:02:00,
2013-01-01 07:12:00,-17.0,-25.0,-100.00,North,10,0.0,0.0,67,0.00,,,0.00,0.000000,,2013-01-01 13:12:00,
2013-01-01 07:33:00,-18.0,-26.0,-100.00,North,10,0.0,0.0,67,0.00,,,0.00,0.000000,,2013-01-01 13:33:00,
2013-01-01 07:43:00,-18.0,-26.0,-100.00,North,10,0.0,0.0,67,0.00,,,0.00,0.000000,,2013-01-01 13:43:00,
2013-01-01 07:53:00,-18.0,-26.0,-100.00,North,10,0.0,0.0,67,0.00,,,0.00,0.000000,,2013-01-01 13:53:00,
2013-01-01 08:02:00,-18.0,-26.0,-100.00,North,10,0.0,0.0,67,0.00,,,0.00,0.000000,,2013-01-01 14:02:00,
2013-01-01 08:12:00,-18.0,-26.0,-100.00,North,10,0.0,0.0,67,0.00,,,0.00,0.000000,,2013-01-01 14:12:00,
2013-01-01 08:43:00,-18.0,-26.0,-100.00,North,9,0.0,0.0,65,0.00,,,0.00,4.000000,,2013-01-01 14:43:00,
2013-01-01 08:53:00,-18.0,-26.0,-100.00,North,9,0.0,0.0,65,0.00,,,0.00,4.000000,,2013-01-01 14:53:00,
2013-01-01 09:03:00,-18.0,-26.0,-100.00,North,9,0.0,0.0,65,0.00,,,0.00,4.000000,,2013-01-01 15:03:00,
2013-01-01 09:12:00,-18.0,-26.0,-100.00,North,9,0.0,0.0,65,0.00,,,0.00,4.000000,,2013-01-01 15:12:00,
2013-01-01 09:33:00,-5.0,-14.0,-100.00,South,189,0.0,2.0,63,0.00,,,0.00,97.000000,,2013-01-01 15:33:00,
2013-01-01 09:43:00,-5.0,-14.0,-100.00,South,189,0.0,2.0,63,0.00,,,0.00,97.000000,,2013-01-01 15:43:00,
2013-01-01 09:53:00,-5.0,-14.0,-100.00,South,189,0.0,2.0,63,0.00,,,0.00,97.000000,,2013-01-01 15:53:00,
2013-01-01 10:02:00,-5.0,-14.0,-100.00,South,189,0.0,2.0,63,0.00,,,0.00,97.000000,,2013-01-01 16:02:00,
2013-01-01 10:12:00,-5.0,-14.0,-100.00,South,189,0.0,2.0,63,0.00,,,0.00,97.000000,,2013-01-01 16:12:00,
2013-01-01 10:33:00,0.0,-9.0,-100.00,SSW,208,2.0,6.0,65,0.00,,,0.00,209.000000,,2013-01-01 16:33:00,
2013-01-01 10:43:00,0.0,-9.0,-100.00,SSW,208,2.0,6.0,65,0.00,,,0.00,209.000000,,2013-01-01 16:43:00,
2013-01-01 10:53:00,0.0,-9.0,-100.00,SSW,208,2.0,6.0,65,0.00,,,0.00,209.000000,,2013-01-01 16:53:00,
2013-01-01 11:02:00,0.0,-9.0,-100.00,SSW,208,2.0,6.0,65,0.00,,,0.00,209.000000,,2013-01-01 17:02:00,
2013-01-01 11:12:00,0.0,-9.0,-100.00,SSW,208,2.0,6.0,65,0.00,,,0.00,209.000000,,2013-01-01 17:12:00,
2013-01-01 11:33:00,5.0,-4.0,-100.00,SSW,211,4.0,10.0,65,0.00,,,0.00,247.000000,,2013-01-01 17:33:00,
2013-01-01 11:43:00,5.0,-4.0,-100.00,SSW,211,4.0,10.0,65,0.00,,,0.00,247.000000,,2013-01-01 17:43:00,
2013-01-01 11:53:00,5.0,-4.0,-100.00,SSW,211,4.0,10.0,65,0.00,,,0.00,247.000000,,2013-01-01 17:53:00,
2013-01-01 12:03:00,5.0,-4.0,-100.00,SSW,211,4.0,10.0,65,0.00,,,0.00,247.000000,,2013-01-01 18:03:00,
2013-01-01 12:12:00,5.0,-4.0,-100.00,SSW,211,4.0,10.0,65,0.00,,,0.00,247.000000,,2013-01-01 18:12:00,
2013-01-01 12:33:00,7.0,-3.0,-100.00,SSW,213,4.0,9.0,62,0.00,,,0.00,178.000000,,2013-01-01 18:33:00,
2013-01-01 12:43:00,7.0,-3.0,-100.00,SSW,213,4.0,9.0,62,0.00,,,0.00,178.000000,,2013-01-01 18:43:00,
2013-01-01 12:53:00,7.0,-3.0,-100.00,SSW,213,4.0,9.0,62,0.00,,,0.00,178.000000,,2013-01-01 18:53:00,
2013-01-01 13:02:00,7.0,-3.0,-100.00,SSW,213,4.0,9.0,62,0.00,,,0.00,178.000000,,2013-01-01 19:02:00,
2013-01-01 13:12:00,7.0,-3.0,-100.00,SSW,213,4.0,9.0,62,0.00,,,0.00,178.000000,,2013-01-01 19:12:00,
2013-01-01 13:33:00,8.0,-3.0,-100.00,SW,225,4.0,9.0,59,0.00,,,0.00,140.000000,,2013-01-01 19:33:00,
2013-01-01 13:43:00,8.0,-3.0,-100.00,SW,225,4.0,9.0,59,0.00,,,0.00,140.000000,,2013-01-01 19:43:00,
2013-01-01 13:53:00,8.0,-3.0,-100.00,SW,225,4.0,9.0,59,0.00,,,0.00,140.000000,,2013-01-01 19:53:00,
2013-01-01 14:02:00,8.0,-3.0,-100.00,SW,225,4.0,9.0,59,0.00,,,0.00,140.000000,,2013-01-01 20:02:00,
2013-01-01 14:12:00,8.0,-3.0,-100.00,SW,225,4.0,9.0,59,0.00,,,0.00,140.000000,,2013-01-01 20:12:00,
2013-01-01 14:42:00,9.0,-1.0,-100.00,SW,231,3.0,11.0,62,0.00,,,0.00,84.000000,,2013-01-01 20:42:00,
2013-01-01 14:53:00,9.0,-1.0,-100.00,SW,231,3.0,11.0,62,0.00,,,0.00,84.000000,,2013-01-01 20:53:00,
2013-01-01 15:03:00,9.0,-1.0,-100.00,SW,231,3.0,11.0,62,0.00,,,0.00,84.000000,,2013-01-01 21:03:00,
2013-01-01 15:12:00,9.0,-1.0,-100.00,SW,231,3.0,11.0,62,0.00,,,0.00,84.000000,,2013-01-01 21:12:00,
2013-01-01 15:33:00,9.0,-1.0,-100.00,SSW,200,3.0,9.0,64,0.00,,,0.00,50.000000,,2013-01-01 21:33:00,
2013-01-01 15:43:00,9.0,-1.0,-100.00,SSW,200,3.0,9.0,64,0.00,,,0.00,50.000000,,2013-01-01 21:43:00,
2013-01-01 15:53:00,9.0,-1.0,-100.00,SSW,200,3.0,9.0,64,0.00,,,0.00,50.000000,,2013-01-01 21:53:00,
2013-01-01 16:02:00,9.0,-1.0,-100.00,SSW,200,3.0,9.0,64,0.00,,,0.00,50.000000,,2013-01-01 22:02:00,
2013-01-01 16:12:00,9.0,-1.0,-100.00,SSW,200,3.0,9.0,64,0.00,,,0.00,50.000000,,2013-01-01 22:12:00,
2013-01-01 16:33:00,10.0,1.0,-100.00,SSW,200,4.0,9.0,66,0.00,,,0.00,21.000000,,2013-01-01 22:33:00,
2013-01-01 16:43:00,10.0,1.0,-100.00,SSW,200,4.0,9.0,66,0.00,,,0.00,21.000000,,2013-01-01 22:43:00,
2013-01-01 16:53:00,10.0,1.0,-100.00,SSW,200,4.0,9.0,66,0.00,,,0.00,21.000000,,2013-01-01 22:53:00,
2013-01-01 17:02:00,10.0,1.0,-100.00,SSW,200,4.0,9.0,66,0.00,,,0.00,21.000000,,2013-01-01 23:02:00,
2013-01-01 17:12:00,10.0,1.0,-100.00,SSW,200,4.0,9.0,66,0.00,,,0.00,21.000000,,2013-01-01 23:12:00,
2013-01-01 17:33:00,10.0,2.0,-100.00,SSW,204,4.0,10.0,68,0.00,,,0.00,2.000000,,2013-01-01 23:33:00,
2013-01-01 17:42:00,10.0,2.0,-100.00,SSW,204,4.0,10.0,68,0.00,,,0.00,2.000000,,2013-01-01 23:42:00,
2013-01-01 17:53:00,10.0,2.0,-100.00,SSW,204,4.0,10.0,68,0.00,,,0.00,2.000000,,2013-01-01 23:53:00,
2013-01-01 18:02:00,10.0,2.0,-100.00,SSW,204,4.0,10.0,68,0.00,,,0.00,2.000000,,2013-01-02 00:02:00,
2013-01-01 18:12:00,10.0,2.0,-100.00,SSW,204,4.0,10.0,68,0.00,,,0.00,2.000000,,2013-01-02 00:12:00,
2013-01-01 18:33:00,11.0,3.0,-100.00,SSW,201,2.0,7.0,68,0.00,,,0.00,0.000000,,2013-01-02 00:33:00,
2013-01-01 18:43:00,11.0,3.0,-100.00,SSW,201,2.0,7.0,68,0.00,,,0.00,0.000000,,2013-01-02 00:43:00,
2013-01-01 18:53:00,11.0,3.0,-100.00,SSW,201,2.0,7.0,68,0.00,,,0.00,0.000000,,2013-01-02 00:53:00,
2013-01-01 19:02:00,11.0,3.0,-100.00,SSW,201,2.0,7.0,68,0.00,,,0.00,0.000000,,2013-01-02 01:02:00,
2013-01-01 19:12:00,11.0,3.0,-100.00,SSW,201,2.0,7.0,68,0.00,,,0.00,0.000000,,2013-01-02 01:12:00,
2013-01-01 19:42:00,12.0,5.0,-100.00,SSW,195,2.0,6.0,72,0.00,,,0.00,0.000000,,2013-01-02 01:42:00,
2013-01-01 19:52:00,12.0,5.0,-100.00,SSW,195,2.0,6.0,72,0.00,,,0.00,0.000000,,2013-01-02 01:52:00,
2013-01-01 20:02:00,12.0,5.0,-100.00,SSW,195,2.0,6.0,72,0.00,,,0.00,0.000000,,2013-01-02 02:02:00,
2013-01-01 20:12:00,12.0,5.0,-100.00,SSW,195,2.0,6.0,72,0.00,,,0.00,0.000000,,2013-01-02 02:12:00,
2013-01-01 20:32:00,13.0,7.0,-100.00,South,189,3.0,7.0,76,0.00,,,0.00,0.000000,,2013-01-02 02:32:00,
2013-01-01 20:43:00,13.0,7.0,-100.00,South,189,3.0,7.0,76,0.00,,,0.00,0.000000,,2013-01-02 02:43:00,
2013-01-01 20:53:00,13.0,7.0,-100.00,South,189,3.0,7.0,76,0.00,,,0.00,0.000000,,2013-01-02 02:53:00,
2013-01-01 21:02:00,13.0,7.0,-100.00,South,189,3.0,7.0,76,0.00,,,0.00,0.000000,,2013-01-02 03:02:00,
2013-01-01 21:12:00,13.0,7.0,-100.00,South,189,3.0,7.0,76,0.00,,,0.00,0.000000,,2013-01-02 03:12:00,
2013-01-01 21:42:00,13.0,7.0,-100.00,South,187,3.0,7.0,77,0.00,,,0.00,0.000000,,2013-01-02 03:42:00,
2013-01-01 21:53:00,13.0,7.0,-100.00,South,187,3.0,7.0,77,0.00,,,0.00,0.000000,,2013-01-02 03:53:00,
2013-01-01 22:02:00,13.0,7.0,-100.00,South,187,3.0,7.0,77,0.00,,,0.00,0.000000,,2013-01-02 04:02:00,
2013-01-01 22:12:00,13.0,7.0,-100.00,South,187,3.0,7.0,77,0.00,,,0.00,0.000000,,2013-01-02 04:12:00,
2013-01-01 22:32:00,13.0,8.0,-100.00,SSW,192,2.0,7.0,79,0.00,,,0.00,0.000000,,2013-01-02 04:32:00,
2013-01-01 22:42:00,13.0,8.0,-100.00,SSW,192,2.0,7.0,79,0.00,,,0.00,0.000000,,2013-01-02 04:42:00,
2013-01-01 22:52:00,13.0,8.0,-100.00,SSW,192,2.0,7.0,79,0.00,,,0.00,0.000000,,2013-01-02 04:52:00,
2013-01-01 23:03:00,13.0,8.0,-100.00,SSW,192,2.0,7.0,79,0.00,,,0.00,0.000000,,2013-01-02 05:03:00,
2013-01-01 23:12:00,13.0,8.0,-100.00,SSW,192,2.0,7.0,79,0.00,,,0.00,0.000000,,2013-01-02 05:12:00,
2013-01-01 23:43:00,14.0,9.0,-100.00,South,178,2.0,5.0,81,0.00,,,0.00,0.000000,,2013-01-02 05:43:00,
2013-01-01 23:53:00,14.0,9.0,-100.00,South,178,2.0,5.0,81,0.00,,,0.00,0.000000,,2013-01-02 05:53:00,